ΕΜΥ, Εθνική Μετεωρολογική Υπηρεσία - Δελτία Καιρού, Προγνώσεις

ΑΕΡΟΝΑΥΤΙΛΙΑ

GREEK AIRPORTS CODES

TAF LGST 200200Z 2003/2012 30020KT 9999 SCT018 SCT025 TEMPO 2003/2006 30020G30KT=

EUROPEAN AIRPORTS CODES

LFPO 200330Z 21006KT CAVOK 15/12 Q1013 NOSIG=